Time;durP1;ratioP1;P1;durP2;ratioP2;P2;SDS_P1;SDS_P2;PMS_P1;PMS_P2;Temp;Humidity;BMP_temperature;BMP_pressure;BME280_temperature;BME280_humidity;BME280_pressure;Samples;Min_cycle;Max_cycle;Signal;HPM_P1;HPM_P2
2022/07/18 00:02:08;;;;;;;2.10;2.00;;;;;;;;;;5061659;28;20314;-61
2022/07/18 00:04:55;;;;;;;2.27;2.07;;;;;;;;;;5059034;28;20214;-62
2022/07/18 00:07:44;;;;;;;2.23;1.80;;;;;;;;;;5056982;28;20225;-62
2022/07/18 00:10:31;;;;;;;2.07;1.87;;;;;;;;;;5063305;28;20222;-62
2022/07/18 00:13:18;;;;;;;1.90;1.80;;;;;;;;;;5059255;28;20611;-62
2022/07/18 00:16:05;;;;;;;1.90;1.80;;;;;;;;;;5060010;28;20204;-62
2022/07/18 00:18:54;;;;;;;2.13;1.90;;;;;;;;;;5064936;28;20208;-62
2022/07/18 00:21:41;;;;;;;2.00;1.83;;;;;;;;;;5061127;28;20307;-62
2022/07/18 00:24:31;;;;;;;2.30;2.10;;;;;;;;;;5059351;28;20266;-62
2022/07/18 00:27:18;;;;;;;1.73;1.63;;;;;;;;;;5054374;28;20291;-61
2022/07/18 00:30:06;;;;;;;2.17;2.07;;;;;;;;;;5059913;28;20239;-61
2022/07/18 00:32:53;;;;;;;1.87;1.77;;;;;;;;;;5061065;28;20212;-62
2022/07/18 00:35:40;;;;;;;1.90;1.80;;;;;;;;;;5067167;28;20266;-62
2022/07/18 00:38:27;;;;;;;2.17;1.97;;;;;;;;;;5061565;28;20296;-62
2022/07/18 00:41:17;;;;;;;1.83;1.73;;;;;;;;;;5060696;28;20216;-62
2022/07/18 00:44:04;;;;;;;1.90;1.80;;;;;;;;;;5061008;28;20234;-62
2022/07/18 00:46:52;;;;;;;1.50;1.40;;;;;;;;;;5064331;28;20216;-62
2022/07/18 00:49:39;;;;;;;1.73;1.63;;;;;;;;;;5060014;28;20222;-62
2022/07/18 00:52:26;;;;;;;1.90;1.80;;;;;;;;;;5055712;28;20216;-62
2022/07/18 00:55:14;;;;;;;2.30;2.10;;;;;;;;;;5063921;28;20259;-62
2022/07/18 00:58:02;;;;;;;1.87;1.77;;;;;;;;;;5065195;28;20207;-62
2022/07/18 01:04:08;;;;;;;2.23;1.80;;;;;;;;;;5000696;28;20314;-62
2022/07/18 01:06:55;;;;;;;2.00;1.90;;;;;;;;;;5000104;28;20233;-61
2022/07/18 01:09:42;;;;;;;1.97;1.83;;;;;;;;;;5049667;28;20216;-62
2022/07/18 01:12:29;;;;;;;2.60;1.90;;;;;;;;;;5066136;28;20221;-61
2022/07/18 01:15:18;;;;;;;1.50;1.40;;;;;;;;;;5059690;28;20449;-62
2022/07/18 01:18:05;;;;;;;1.70;1.60;;;;;;;;;;5055167;28;20211;-62
2022/07/18 01:20:53;;;;;;;1.97;1.87;;;;;;;;;;5058607;28;20685;-62
2022/07/18 01:23:41;;;;;;;1.73;1.50;;;;;;;;;;5055767;28;20230;-62
2022/07/18 01:26:28;;;;;;;1.60;1.50;;;;;;;;;;5056383;28;20686;-62
2022/07/18 01:29:15;;;;;;;1.77;1.67;;;;;;;;;;5059124;28;20256;-62
2022/07/18 01:32:05;;;;;;;1.67;1.57;;;;;;;;;;5057888;28;20302;-63
2022/07/18 01:34:52;;;;;;;1.60;1.50;;;;;;;;;;5059513;28;20289;-62
2022/07/18 01:37:41;;;;;;;2.13;2.03;;;;;;;;;;5059665;28;20686;-62
2022/07/18 01:40:28;;;;;;;1.97;1.87;;;;;;;;;;5059705;28;20257;-62
2022/07/18 01:43:15;;;;;;;1.93;1.80;;;;;;;;;;5059678;28;20219;-62
2022/07/18 01:46:02;;;;;;;1.77;1.67;;;;;;;;;;5063795;28;20654;-62
2022/07/18 01:48:49;;;;;;;1.50;1.40;;;;;;;;;;5057541;28;20266;-62
2022/07/18 01:51:36;;;;;;;2.47;1.60;;;;;;;;;;5056346;28;20211;-62
2022/07/18 01:54:27;;;;;;;1.87;1.77;;;;;;;;;;5058623;28;20200;-62
2022/07/18 01:57:14;;;;;;;2.13;1.97;;;;;;;;;;5054232;28;20210;-65
2022/07/18 02:00:01;;;;;;;1.80;1.70;;;;;;;;;;5058390;28;20248;-62
2022/07/18 02:02:48;;;;;;;1.73;1.63;;;;;;;;;;5052548;28;20715;-62
2022/07/18 02:05:34;;;;;;;1.70;1.60;;;;;;;;;;5056151;28;20233;-62
2022/07/18 02:08:21;;;;;;;1.67;1.57;;;;;;;;;;5062930;28;20214;-62
2022/07/18 02:11:10;;;;;;;1.80;1.70;;;;;;;;;;5061517;28;20233;-62
2022/07/18 02:13:57;;;;;;;1.90;1.80;;;;;;;;;;5058718;28;20719;-62
2022/07/18 02:16:44;;;;;;;1.70;1.60;;;;;;;;;;5059366;28;20219;-62
2022/07/18 02:19:31;;;;;;;1.90;1.80;;;;;;;;;;5055262;28;20294;-63
2022/07/18 02:22:18;;;;;;;1.80;1.70;;;;;;;;;;5060453;28;20202;-62
2022/07/18 02:25:06;;;;;;;1.40;1.40;;;;;;;;;;5059620;28;20304;-63
2022/07/18 02:27:55;;;;;;;1.73;1.63;;;;;;;;;;5060262;28;20621;-62
2022/07/18 02:30:42;;;;;;;1.90;1.80;;;;;;;;;;5051051;28;20233;-62
2022/07/18 02:33:28;;;;;;;1.67;1.57;;;;;;;;;;5063713;28;20560;-62
2022/07/18 02:36:15;;;;;;;2.10;1.57;;;;;;;;;;5061927;28;20293;-62
2022/07/18 02:39:02;;;;;;;1.80;1.70;;;;;;;;;;5058231;28;20203;-62
2022/07/18 02:41:49;;;;;;;1.47;1.30;;;;;;;;;;5055928;28;20216;-62
2022/07/18 02:44:38;;;;;;;1.70;1.60;;;;;;;;;;5059277;28;20223;-62
2022/07/18 02:47:25;;;;;;;1.73;1.63;;;;;;;;;;5059768;28;20206;-62
2022/07/18 02:50:12;;;;;;;1.73;1.63;;;;;;;;;;5056475;28;20233;-62
2022/07/18 02:52:59;;;;;;;1.83;1.73;;;;;;;;;;5061530;28;20690;-62
2022/07/18 02:55:46;;;;;;;2.00;1.90;;;;;;;;;;5054178;28;20695;-62
2022/07/18 02:58:33;;;;;;;1.83;1.60;;;;;;;;;;5055601;28;20312;-62
2022/07/18 03:01:21;;;;;;;1.90;1.70;;;;;;;;;;5060517;28;20214;-62
2022/07/18 03:04:09;;;;;;;1.87;1.60;;;;;;;;;;5059692;28;20315;-62
2022/07/18 03:06:56;;;;;;;1.63;1.63;;;;;;;;;;5059796;28;20237;-62
2022/07/18 03:09:43;;;;;;;1.87;1.77;;;;;;;;;;5054339;28;20217;-62
2022/07/18 03:12:30;;;;;;;1.60;1.50;;;;;;;;;;5060679;28;20281;-62
2022/07/18 03:15:17;;;;;;;1.60;1.50;;;;;;;;;;5058838;28;20207;-62
2022/07/18 03:18:05;;;;;;;1.93;1.73;;;;;;;;;;5067820;28;20211;-63
2022/07/18 03:20:52;;;;;;;1.40;1.40;;;;;;;;;;5062127;28;20269;-63
2022/07/18 03:23:39;;;;;;;1.87;1.67;;;;;;;;;;5064260;28;20227;-62
2022/07/18 03:26:26;;;;;;;2.13;1.50;;;;;;;;;;5057980;28;20210;-62
2022/07/18 03:29:13;;;;;;;1.43;1.33;;;;;;;;;;5057487;28;20212;-62
2022/07/18 03:32:00;;;;;;;1.50;1.40;;;;;;;;;;5058623;28;20219;-61
2022/07/18 03:34:48;;;;;;;1.70;1.53;;;;;;;;;;5060455;28;20205;-62
2022/07/18 03:37:35;;;;;;;1.67;1.60;;;;;;;;;;5065783;28;20210;-62
2022/07/18 03:40:22;;;;;;;1.40;1.40;;;;;;;;;;5055722;28;20666;-62
2022/07/18 03:43:09;;;;;;;1.57;1.47;;;;;;;;;;5061047;28;20221;-62
2022/07/18 03:45:56;;;;;;;1.70;1.60;;;;;;;;;;5057271;28;20210;-61
2022/07/18 03:48:43;;;;;;;1.90;1.60;;;;;;;;;;5061203;28;20678;-62
2022/07/18 03:51:32;;;;;;;1.70;1.60;;;;;;;;;;5055728;28;20677;-62
2022/07/18 03:54:19;;;;;;;1.43;1.43;;;;;;;;;;5060650;28;20679;-62
2022/07/18 03:57:06;;;;;;;1.93;1.80;;;;;;;;;;5061007;28;20210;-62
2022/07/18 03:59:53;;;;;;;1.53;1.43;;;;;;;;;;5062003;28;20240;-62
2022/07/18 04:02:40;;;;;;;1.83;1.73;;;;;;;;;;5060266;28;20613;-61
2022/07/18 04:05:27;;;;;;;1.70;1.60;;;;;;;;;;5061456;28;20754;-62
2022/07/18 04:08:15;;;;;;;1.57;1.47;;;;;;;;;;5060503;28;20235;-62
2022/07/18 04:11:02;;;;;;;2.13;1.67;;;;;;;;;;5059211;28;20516;-62
2022/07/18 04:13:49;;;;;;;1.60;1.50;;;;;;;;;;5057928;28;20248;-62
2022/07/18 04:16:36;;;;;;;1.70;1.60;;;;;;;;;;5058007;28;20345;-62
2022/07/18 04:19:25;;;;;;;1.80;1.70;;;;;;;;;;5062618;28;20210;-62
2022/07/18 04:22:12;;;;;;;1.57;1.47;;;;;;;;;;5064404;28;20196;-62
2022/07/18 04:25:00;;;;;;;1.47;1.47;;;;;;;;;;5058357;28;20227;-62
2022/07/18 04:27:48;;;;;;;2.00;1.90;;;;;;;;;;5060248;28;20658;-62
2022/07/18 04:30:35;;;;;;;2.93;1.77;;;;;;;;;;5061738;28;20226;-61
2022/07/18 04:33:23;;;;;;;1.77;1.67;;;;;;;;;;5069072;28;20214;-62
2022/07/18 04:36:10;;;;;;;2.03;1.90;;;;;;;;;;5056206;28;20206;-62
2022/07/18 04:38:57;;;;;;;1.60;1.50;;;;;;;;;;5062120;28;20210;-62
2022/07/18 04:41:45;;;;;;;1.80;1.70;;;;;;;;;;5059034;28;20268;-62
2022/07/18 04:44:32;;;;;;;1.80;1.70;;;;;;;;;;5056663;28;20713;-62
2022/07/18 04:47:19;;;;;;;1.90;1.70;;;;;;;;;;5058585;28;20225;-62
2022/07/18 04:50:07;;;;;;;1.60;1.50;;;;;;;;;;5058709;28;20206;-62
2022/07/18 04:52:54;;;;;;;1.60;1.43;;;;;;;;;;5061167;28;20669;-62
2022/07/18 04:55:41;;;;;;;1.53;1.43;;;;;;;;;;5064704;28;20293;-62
2022/07/18 04:58:30;;;;;;;1.40;1.30;;;;;;;;;;5059782;28;20215;-62
2022/07/18 05:01:17;;;;;;;1.70;1.60;;;;;;;;;;5066022;28;20345;-62
2022/07/18 05:04:05;;;;;;;1.67;1.57;;;;;;;;;;5063242;28;20217;-62
2022/07/18 05:06:52;;;;;;;1.73;1.63;;;;;;;;;;5054351;28;20222;-62
2022/07/18 05:09:39;;;;;;;1.53;1.43;;;;;;;;;;5063073;28;20372;-62
2022/07/18 05:12:26;;;;;;;1.70;1.60;;;;;;;;;;5056227;28;20223;-62
2022/07/18 05:15:16;;;;;;;1.77;1.67;;;;;;;;;;5060357;28;20202;-62
2022/07/18 05:18:03;;;;;;;1.60;1.50;;;;;;;;;;5063650;28;20269;-62
2022/07/18 05:20:50;;;;;;;1.83;1.70;;;;;;;;;;5062500;28;20719;-62
2022/07/18 05:23:37;;;;;;;1.60;1.50;;;;;;;;;;5065718;28;20203;-63
2022/07/18 05:26:24;;;;;;;1.70;1.60;;;;;;;;;;5056975;28;20201;-63
2022/07/18 05:29:12;;;;;;;1.60;1.50;;;;;;;;;;5063383;28;20216;-62
2022/07/18 05:32:02;;;;;;;1.60;1.50;;;;;;;;;;5057481;28;20207;-62
2022/07/18 05:34:49;;;;;;;1.57;1.47;;;;;;;;;;5058704;28;20246;-62
2022/07/18 05:37:37;;;;;;;1.80;1.70;;;;;;;;;;5056632;28;20216;-62
2022/07/18 05:40:24;;;;;;;1.70;1.60;;;;;;;;;;5054832;28;20218;-62
2022/07/18 05:43:11;;;;;;;1.53;1.43;;;;;;;;;;5053711;28;20216;-62
2022/07/18 05:45:58;;;;;;;1.87;1.73;;;;;;;;;;5056411;28;20224;-62
2022/07/18 05:48:46;;;;;;;1.60;1.50;;;;;;;;;;5059178;28;20207;-62
2022/07/18 05:51:33;;;;;;;1.50;1.47;;;;;;;;;;5058921;28;20208;-62
2022/07/18 05:54:20;;;;;;;1.73;1.63;;;;;;;;;;5062884;28;20573;-62
2022/07/18 05:57:07;;;;;;;1.80;1.70;;;;;;;;;;5058301;28;20275;-62
2022/07/18 05:59:54;;;;;;;1.60;1.50;;;;;;;;;;5057741;28;20616;-62
2022/07/18 06:02:41;;;;;;;1.67;1.57;;;;;;;;;;5060624;28;20211;-62
2022/07/18 06:05:29;;;;;;;1.40;1.40;;;;;;;;;;5059338;28;20238;-62
2022/07/18 06:08:17;;;;;;;1.80;1.70;;;;;;;;;;5055897;28;20211;-62
2022/07/18 06:11:06;;;;;;;1.70;1.60;;;;;;;;;;5055431;28;20207;-62
2022/07/18 06:13:53;;;;;;;1.77;1.67;;;;;;;;;;5057251;28;20212;-61
2022/07/18 06:16:41;;;;;;;1.60;1.50;;;;;;;;;;5062144;28;20207;-62
2022/07/18 06:19:28;;;;;;;1.77;1.67;;;;;;;;;;5061651;28;20261;-62
2022/07/18 06:22:16;;;;;;;1.70;1.60;;;;;;;;;;5054956;28;20215;-62
2022/07/18 06:25:04;;;;;;;1.40;1.40;;;;;;;;;;5061903;28;20220;-62
2022/07/18 06:27:51;;;;;;;1.70;1.60;;;;;;;;;;5057622;28;20564;-62
2022/07/18 06:30:38;;;;;;;1.50;1.40;;;;;;;;;;5058411;28;20208;-62
2022/07/18 06:33:25;;;;;;;1.40;1.30;;;;;;;;;;5058479;28;20281;-62
2022/07/18 06:36:13;;;;;;;1.60;1.60;;;;;;;;;;5059543;28;20216;-62
2022/07/18 06:39:01;;;;;;;1.70;1.50;;;;;;;;;;5056604;28;20206;-62
2022/07/18 06:41:48;;;;;;;1.60;1.50;;;;;;;;;;5053176;28;20203;-62
2022/07/18 06:44:35;;;;;;;1.70;1.60;;;;;;;;;;5056491;28;20267;-62
2022/07/18 06:47:22;;;;;;;1.57;1.50;;;;;;;;;;5052381;28;20228;-62
2022/07/18 06:50:10;;;;;;;1.60;1.50;;;;;;;;;;5052371;28;20214;-62
2022/07/18 06:52:57;;;;;;;1.70;1.60;;;;;;;;;;5052295;28;20212;-62
2022/07/18 06:55:46;;;;;;;1.47;1.40;;;;;;;;;;5054534;28;20212;-62
2022/07/18 06:58:33;;;;;;;1.60;1.50;;;;;;;;;;5049990;28;20208;-62
2022/07/18 07:01:21;;;;;;;1.57;1.47;;;;;;;;;;5053075;28;20206;-62
2022/07/18 07:04:08;;;;;;;1.37;1.37;;;;;;;;;;5058836;28;20688;-62
2022/07/18 07:06:55;;;;;;;1.70;1.60;;;;;;;;;;5056215;28;20235;-62
2022/07/18 07:09:42;;;;;;;1.70;1.60;;;;;;;;;;5058403;28;20208;-62
2022/07/18 07:12:30;;;;;;;1.60;1.50;;;;;;;;;;5064530;28;20200;-62
2022/07/18 07:15:20;;;;;;;1.70;1.60;;;;;;;;;;5055362;28;20212;-61
2022/07/18 07:18:07;;;;;;;1.60;1.50;;;;;;;;;;5059463;28;20203;-61
2022/07/18 07:20:54;;;;;;;1.80;1.70;;;;;;;;;;5058332;28;20266;-62
2022/07/18 07:23:41;;;;;;;1.67;1.57;;;;;;;;;;5063362;28;20202;-62
2022/07/18 07:26:28;;;;;;;1.67;1.57;;;;;;;;;;5061667;28;20717;-62
2022/07/18 07:29:16;;;;;;;1.00;1.00;;;;;;;;;;5058885;28;20211;-62
2022/07/18 07:32:04;;;;;;;1.70;1.60;;;;;;;;;;5064541;28;20209;-62
2022/07/18 07:34:51;;;;;;;1.50;1.40;;;;;;;;;;5055972;28;20571;-62
2022/07/18 07:37:38;;;;;;;1.50;1.40;;;;;;;;;;5058164;28;20208;-62
2022/07/18 07:40:27;;;;;;;1.40;1.30;;;;;;;;;;5059267;28;20201;-62
2022/07/18 07:43:16;;;;;;;1.70;1.60;;;;;;;;;;5056796;28;20289;-62
2022/07/18 07:46:04;;;;;;;1.60;1.50;;;;;;;;;;5060029;28;20224;-62
2022/07/18 07:48:51;;;;;;;1.50;1.50;;;;;;;;;;5057773;28;20472;-62
2022/07/18 07:51:38;;;;;;;1.40;1.40;;;;;;;;;;5057531;28;20209;-62
2022/07/18 07:54:25;;;;;;;1.70;1.60;;;;;;;;;;5059480;28;20212;-62
2022/07/18 07:57:12;;;;;;;1.67;1.67;;;;;;;;;;5060469;28;20204;-62
2022/07/18 07:59:59;;;;;;;1.73;1.70;;;;;;;;;;5056976;28;20284;-62
2022/07/18 08:02:58;;;;;;;1.47;1.30;;;;;;;;;;5063331;28;20337;-61
2022/07/18 08:05:48;;;;;;;1.50;1.47;;;;;;;;;;5061062;28;20236;-62
2022/07/18 08:08:35;;;;;;;1.40;1.40;;;;;;;;;;5059074;28;20214;-61
2022/07/18 08:11:22;;;;;;;1.57;1.47;;;;;;;;;;5057527;28;20244;-62
2022/07/18 08:14:09;;;;;;;1.60;1.50;;;;;;;;;;5057620;28;20289;-62
2022/07/18 08:16:56;;;;;;;1.60;1.50;;;;;;;;;;5058048;28;20619;-62
2022/07/18 08:19:44;;;;;;;1.73;1.63;;;;;;;;;;5060792;28;20214;-62
2022/07/18 08:22:31;;;;;;;1.53;1.40;;;;;;;;;;5062799;28;20204;-62
2022/07/18 08:25:19;;;;;;;1.70;1.60;;;;;;;;;;5059367;28;20234;-62
2022/07/18 08:28:07;;;;;;;1.67;1.57;;;;;;;;;;5056689;28;20206;-62
2022/07/18 08:30:54;;;;;;;1.80;1.70;;;;;;;;;;5060315;28;20208;-62
2022/07/18 08:33:41;;;;;;;1.43;1.40;;;;;;;;;;5059179;28;20201;-62
2022/07/18 08:36:29;;;;;;;1.47;1.47;;;;;;;;;;5059944;28;20209;-62
2022/07/18 08:39:16;;;;;;;1.37;1.30;;;;;;;;;;5062561;28;20205;-62
2022/07/18 08:42:05;;;;;;;1.70;1.60;;;;;;;;;;5058042;28;20240;-65
2022/07/18 08:44:53;;;;;;;1.57;1.47;;;;;;;;;;5059029;28;20220;-62
2022/07/18 08:47:40;;;;;;;1.60;1.50;;;;;;;;;;5060691;28;20204;-62
2022/07/18 08:50:27;;;;;;;1.53;1.53;;;;;;;;;;5057588;28;20213;-62
2022/07/18 08:53:17;;;;;;;1.50;1.40;;;;;;;;;;5058778;28;20204;-62
2022/07/18 08:56:05;;;;;;;1.57;1.50;;;;;;;;;;5058700;28;20333;-63
2022/07/18 08:58:52;;;;;;;1.50;1.50;;;;;;;;;;5053531;28;20340;-62
2022/07/18 09:01:39;;;;;;;1.57;1.47;;;;;;;;;;5058578;28;20213;-62
2022/07/18 09:04:33;;;;;;;1.70;1.60;;;;;;;;;;5060334;28;20274;-64
2022/07/18 09:07:29;;;;;;;1.50;1.40;;;;;;;;;;5062592;28;20616;-62
2022/07/18 09:10:17;;;;;;;1.50;1.50;;;;;;;;;;5056005;28;20252;-62
2022/07/18 09:13:04;;;;;;;1.50;1.40;;;;;;;;;;5057149;28;20218;-62
2022/07/18 09:16:02;;;;;;;1.50;1.40;;;;;;;;;;5056145;28;20308;-63
2022/07/18 09:18:50;;;;;;;1.50;1.50;;;;;;;;;;5060724;28;20211;-62
2022/07/18 09:21:37;;;;;;;1.30;1.30;;;;;;;;;;5058583;28;20233;-62
2022/07/18 09:24:24;;;;;;;1.40;1.33;;;;;;;;;;5058887;28;20289;-62
2022/07/18 09:27:25;;;;;;;1.47;1.40;;;;;;;;;;5060287;28;20253;-62
2022/07/18 09:30:18;;;;;;;1.20;1.20;;;;;;;;;;5063799;28;20577;-62
2022/07/18 09:33:07;;;;;;;1.57;1.47;;;;;;;;;;5058000;28;20681;-62
2022/07/18 09:35:55;;;;;;;1.67;1.57;;;;;;;;;;5057699;28;20286;-62
2022/07/18 09:38:42;;;;;;;1.37;1.37;;;;;;;;;;5054199;28;20244;-62
2022/07/18 09:41:32;;;;;;;1.43;1.37;;;;;;;;;;5059206;28;20219;-62
2022/07/18 09:44:21;;;;;;;1.67;1.57;;;;;;;;;;5051986;28;20571;-62
2022/07/18 09:47:08;;;;;;;1.67;1.57;;;;;;;;;;5058698;28;20226;-62
2022/07/18 09:49:55;;;;;;;1.90;1.80;;;;;;;;;;5057769;28;20212;-62
2022/07/18 09:52:42;;;;;;;2.00;1.90;;;;;;;;;;5054362;28;20345;-62
2022/07/18 09:55:29;;;;;;;2.70;1.77;;;;;;;;;;5056714;28;20362;-62
2022/07/18 09:58:18;;;;;;;1.90;1.70;;;;;;;;;;5064407;28;20204;-62
2022/07/18 10:01:08;;;;;;;1.80;1.70;;;;;;;;;;5057572;28;20217;-62
2022/07/18 10:03:56;;;;;;;1.83;1.70;;;;;;;;;;5058215;28;20273;-62
2022/07/18 10:06:44;;;;;;;1.90;1.80;;;;;;;;;;5055779;28;20238;-62
2022/07/18 10:09:31;;;;;;;1.80;1.70;;;;;;;;;;5059123;28;20654;-62
2022/07/18 10:12:19;;;;;;;2.00;1.90;;;;;;;;;;5055564;28;20215;-65
2022/07/18 10:15:07;;;;;;;2.00;1.90;;;;;;;;;;5054303;28;20204;-62
2022/07/18 10:17:56;;;;;;;1.73;1.63;;;;;;;;;;5060880;28;20756;-61
2022/07/18 10:20:47;;;;;;;2.43;1.97;;;;;;;;;;5051239;28;20242;-63
2022/07/18 10:23:36;;;;;;;1.80;1.70;;;;;;;;;;5058742;28;20211;-62
2022/07/18 10:26:25;;;;;;;1.80;1.70;;;;;;;;;;5062781;28;20237;-63
2022/07/18 10:29:17;;;;;;;1.63;1.60;;;;;;;;;;5058066;28;20334;-64
2022/07/18 10:32:07;;;;;;;2.00;1.90;;;;;;;;;;5057547;28;20240;-63
2022/07/18 10:34:55;;;;;;;2.10;2.00;;;;;;;;;;5058136;28;20693;-62
2022/07/18 10:37:42;;;;;;;2.37;2.20;;;;;;;;;;5066557;28;20698;-63
2022/07/18 10:40:30;;;;;;;2.00;1.90;;;;;;;;;;5066539;28;20221;-62
2022/07/18 10:43:34;;;;;;;2.10;2.00;;;;;;;;;;5059233;28;20200;-62
2022/07/18 10:46:21;;;;;;;2.33;2.00;;;;;;;;;;5065251;28;20224;-63
2022/07/18 10:49:08;;;;;;;1.83;1.73;;;;;;;;;;5060356;28;20214;-62
2022/07/18 10:51:57;;;;;;;2.20;2.10;;;;;;;;;;5058253;28;20287;-63
2022/07/18 10:55:22;;;;;;;2.50;2.40;;;;;;;;;;5059348;28;20206;-62
2022/07/18 10:58:20;;;;;;;2.27;2.17;;;;;;;;;;5058125;28;20238;-62
2022/07/18 11:01:15;;;;;;;2.57;2.37;;;;;;;;;;5061631;28;20579;-62
2022/07/18 11:04:23;;;;;;;2.47;2.37;;;;;;;;;;5066089;28;20215;-63
2022/07/18 11:07:14;;;;;;;2.03;1.93;;;;;;;;;;5063920;28;20221;-62
2022/07/18 11:10:01;;;;;;;2.60;2.40;;;;;;;;;;5060454;28;20677;-63
2022/07/18 11:13:05;;;;;;;2.63;2.47;;;;;;;;;;5059080;28;20270;-62
2022/07/18 11:15:55;;;;;;;2.40;2.30;;;;;;;;;;5061399;28;20203;-62
2022/07/18 11:19:20;;;;;;;2.60;2.40;;;;;;;;;;5063636;28;20212;-62
2022/07/18 11:22:07;;;;;;;2.65;2.45;;;;;;;;;;5057871;28;20324;-62
2022/07/18 11:24:55;;;;;;;2.75;2.55;;;;;;;;;;5063733;28;20300;-63
2022/07/18 11:27:43;;;;;;;2.67;2.47;;;;;;;;;;5057141;28;20235;-62
2022/07/18 11:30:30;;;;;;;2.63;2.43;;;;;;;;;;5064489;28;20610;-62
2022/07/18 11:33:23;;;;;;;2.58;2.38;;;;;;;;;;5065405;28;20291;-63
2022/07/18 11:36:11;;;;;;;2.67;2.47;;;;;;;;;;5060704;28;20203;-63
2022/07/18 11:39:00;;;;;;;2.53;2.42;;;;;;;;;;5061127;28;20209;-62
2022/07/18 11:41:49;;;;;;;2.60;2.47;;;;;;;;;;5065984;28;20214;-62
2022/07/18 11:44:35;;;;;;;2.90;2.70;;;;;;;;;;5062038;28;20559;-61
2022/07/18 11:47:22;;;;;;;3.03;2.83;;;;;;;;;;5064888;28;20237;-62
2022/07/18 11:50:10;;;;;;;3.08;2.88;;;;;;;;;;5060346;28;20590;-63
2022/07/18 11:52:57;;;;;;;3.88;2.80;;;;;;;;;;5066708;28;20209;-62
2022/07/18 11:55:45;;;;;;;3.00;2.80;;;;;;;;;;5059300;28;20214;-62
2022/07/18 11:58:38;;;;;;;3.80;3.50;;;;;;;;;;5064115;28;20215;-62
2022/07/18 12:01:32;;;;;;;3.30;3.00;;;;;;;;;;5061339;28;20200;-62
2022/07/18 12:04:21;;;;;;;3.47;3.28;;;;;;;;;;5067619;28;20206;-62
2022/07/18 12:07:15;;;;;;;3.00;2.80;;;;;;;;;;5054050;28;20699;-62
2022/07/18 12:10:16;;;;;;;3.38;3.17;;;;;;;;;;5058344;28;20294;-62
2022/07/18 12:13:03;;;;;;;3.60;3.40;;;;;;;;;;5059788;28;20211;-62
2022/07/18 12:15:51;;;;;;;3.63;3.35;;;;;;;;;;5059622;28;20674;-62
2022/07/18 12:18:38;;;;;;;3.47;3.28;;;;;;;;;;5060694;28;20266;-61
2022/07/18 12:21:25;;;;;;;3.40;3.20;;;;;;;;;;5062936;28;20316;-61
2022/07/18 12:24:28;;;;;;;3.42;3.20;;;;;;;;;;5063247;28;20199;-62
2022/07/18 12:27:19;;;;;;;3.60;3.40;;;;;;;;;;5060836;28;20259;-63
2022/07/18 12:30:11;;;;;;;3.88;3.50;;;;;;;;;;5065716;28;20206;-62
2022/07/18 12:32:59;;;;;;;4.05;3.75;;;;;;;;;;5061481;28;20207;-62
2022/07/18 12:35:54;;;;;;;3.67;3.42;;;;;;;;;;5064680;28;20207;-62
2022/07/18 12:38:41;;;;;;;4.00;3.70;;;;;;;;;;5059692;28;20219;-62
2022/07/18 12:41:29;;;;;;;3.88;3.55;;;;;;;;;;5060462;28;20230;-62
2022/07/18 12:44:16;;;;;;;3.67;3.38;;;;;;;;;;5060453;28;20688;-63
2022/07/18 12:47:03;;;;;;;3.65;3.45;;;;;;;;;;5056038;28;20610;-62
2022/07/18 12:49:52;;;;;;;4.13;3.80;;;;;;;;;;5057225;28;20250;-62
2022/07/18 12:52:39;;;;;;;3.58;3.38;;;;;;;;;;5060786;28;20339;-62
2022/07/18 12:55:26;;;;;;;3.70;3.40;;;;;;;;;;5062950;28;20222;-66
2022/07/18 12:58:13;;;;;;;3.60;3.40;;;;;;;;;;5062921;28;20690;-62
2022/07/18 13:01:00;;;;;;;3.90;3.70;;;;;;;;;;5058939;28;20248;-62
2022/07/18 13:03:47;;;;;;;4.20;3.90;;;;;;;;;;5059072;28;20219;-62
2022/07/18 13:06:37;;;;;;;4.00;3.70;;;;;;;;;;5060888;28;20231;-62
2022/07/18 13:09:24;;;;;;;3.78;3.50;;;;;;;;;;5065124;28;20214;-62
2022/07/18 13:12:11;;;;;;;3.63;3.38;;;;;;;;;;5058831;28;20208;-62
2022/07/18 13:14:58;;;;;;;4.22;3.92;;;;;;;;;;5059767;28;20211;-63
2022/07/18 13:17:45;;;;;;;4.18;3.88;;;;;;;;;;5060698;28;20648;-62
2022/07/18 13:20:32;;;;;;;4.40;4.10;;;;;;;;;;5057737;28;20264;-62
2022/07/18 13:23:21;;;;;;;4.13;3.83;;;;;;;;;;5057184;28;20202;-62
2022/07/18 13:26:08;;;;;;;4.03;3.72;;;;;;;;;;5059147;28;20217;-63
2022/07/18 13:28:55;;;;;;;3.30;3.10;;;;;;;;;;5060042;28;20289;-62
2022/07/18 13:31:42;;;;;;;3.63;3.42;;;;;;;;;;5061636;28;20210;-63
2022/07/18 13:34:29;;;;;;;4.07;3.78;;;;;;;;;;5059289;28;20214;-62
2022/07/18 13:37:16;;;;;;;3.90;3.70;;;;;;;;;;5056568;28;20203;-63
2022/07/18 13:40:06;;;;;;;3.63;3.42;;;;;;;;;;5059800;28;20679;-63
2022/07/18 13:42:53;;;;;;;4.10;3.80;;;;;;;;;;5060874;28;20558;-62
2022/07/18 13:45:40;;;;;;;4.32;3.92;;;;;;;;;;5062233;28;20218;-62
2022/07/18 13:48:27;;;;;;;4.30;3.90;;;;;;;;;;5057907;28;20235;-62
2022/07/18 13:51:14;;;;;;;3.80;3.60;;;;;;;;;;5057759;28;20290;-64
2022/07/18 13:54:01;;;;;;;4.72;3.80;;;;;;;;;;5063223;28;20693;-62
2022/07/18 13:56:49;;;;;;;4.07;3.78;;;;;;;;;;5055370;28;20620;-62
2022/07/18 13:59:36;;;;;;;4.25;3.95;;;;;;;;;;5058762;28;20208;-62
2022/07/18 14:02:23;;;;;;;4.00;3.80;;;;;;;;;;5057484;28;20277;-63
2022/07/18 14:05:10;;;;;;;3.83;3.58;;;;;;;;;;5057205;28;20296;-62
2022/07/18 14:07:57;;;;;;;4.25;3.95;;;;;;;;;;5060826;28;20580;-63
2022/07/18 14:10:45;;;;;;;4.10;3.80;;;;;;;;;;5063677;28;20302;-62
2022/07/18 14:13:33;;;;;;;4.13;3.85;;;;;;;;;;5056535;28;20379;-62
2022/07/18 14:16:20;;;;;;;3.85;3.55;;;;;;;;;;5059519;28;20592;-63
2022/07/18 14:19:07;;;;;;;4.25;3.95;;;;;;;;;;5054555;28;20258;-62
2022/07/18 14:21:55;;;;;;;4.10;3.80;;;;;;;;;;5055333;28;20238;-62
2022/07/18 14:24:43;;;;;;;3.78;3.58;;;;;;;;;;5054176;28;20253;-62
2022/07/18 14:27:30;;;;;;;4.28;3.97;;;;;;;;;;5057358;28;20251;-64
2022/07/18 14:30:19;;;;;;;4.20;3.90;;;;;;;;;;5061172;28;20671;-62
2022/07/18 14:33:06;;;;;;;4.03;3.65;;;;;;;;;;5063220;28;20674;-62
2022/07/18 14:35:53;;;;;;;3.88;3.58;;;;;;;;;;5055351;28;20200;-62
2022/07/18 14:38:40;;;;;;;3.47;3.28;;;;;;;;;;5054222;28;20288;-62
2022/07/18 14:41:27;;;;;;;4.03;3.72;;;;;;;;;;5055936;28;20298;-62
2022/07/18 14:44:14;;;;;;;3.33;3.13;;;;;;;;;;5056537;28;20223;-63
2022/07/18 14:47:02;;;;;;;3.70;3.40;;;;;;;;;;5053309;28;20234;-62
2022/07/18 14:49:49;;;;;;;4.07;3.80;;;;;;;;;;5061919;28;20593;-62
2022/07/18 14:52:36;;;;;;;3.58;3.38;;;;;;;;;;5060175;28;20577;-62
2022/07/18 14:55:23;;;;;;;3.60;3.40;;;;;;;;;;5054139;28;21020;-62
2022/07/18 14:58:10;;;;;;;3.83;3.53;;;;;;;;;;5055660;28;20210;-68
2022/07/18 15:00:57;;;;;;;3.65;3.35;;;;;;;;;;5059151;28;20204;-61
2022/07/18 15:03:46;;;;;;;3.50;3.30;;;;;;;;;;5059535;28;20203;-62
2022/07/18 15:06:33;;;;;;;3.60;3.40;;;;;;;;;;5055394;28;20232;-62
2022/07/18 15:09:20;;;;;;;3.63;3.42;;;;;;;;;;5058139;28;20207;-62
2022/07/18 15:12:08;;;;;;;3.78;3.58;;;;;;;;;;5054335;28;20283;-62
2022/07/18 15:14:56;;;;;;;3.63;3.42;;;;;;;;;;5058821;28;20245;-62
2022/07/18 15:17:43;;;;;;;3.83;3.53;;;;;;;;;;5055515;28;20226;-62
2022/07/18 15:20:31;;;;;;;3.75;3.47;;;;;;;;;;5056651;28;20230;-61
2022/07/18 15:23:18;;;;;;;3.67;3.47;;;;;;;;;;5055333;28;20202;-61
2022/07/18 15:26:05;;;;;;;3.55;3.35;;;;;;;;;;5063807;28;20218;-61
2022/07/18 15:28:52;;;;;;;3.42;3.22;;;;;;;;;;5057617;28;20296;-61
2022/07/18 15:31:40;;;;;;;3.60;3.40;;;;;;;;;;5063110;28;20205;-61
2022/07/18 15:34:27;;;;;;;3.70;3.45;;;;;;;;;;5061482;28;20295;-62
2022/07/18 15:37:15;;;;;;;3.70;3.40;;;;;;;;;;5058926;28;20202;-62
2022/07/18 15:40:02;;;;;;;3.78;3.58;;;;;;;;;;5058644;28;20231;-63
2022/07/18 15:42:49;;;;;;;3.60;3.40;;;;;;;;;;5060267;28;20222;-62
2022/07/18 15:45:37;;;;;;;3.80;3.42;;;;;;;;;;5069249;28;20218;-62
2022/07/18 15:48:24;;;;;;;3.40;3.20;;;;;;;;;;5065487;28;20223;-62
2022/07/18 15:51:11;;;;;;;3.50;3.25;;;;;;;;;;5069155;28;20222;-61
2022/07/18 15:53:59;;;;;;;3.40;3.10;;;;;;;;;;5059623;28;20238;-62
2022/07/18 15:56:46;;;;;;;3.17;2.95;;;;;;;;;;5063494;28;20312;-62
2022/07/18 15:59:33;;;;;;;3.63;3.42;;;;;;;;;;5058488;28;20226;-62
2022/07/18 16:02:20;;;;;;;3.53;3.33;;;;;;;;;;5059631;28;20737;-62
2022/07/18 16:05:08;;;;;;;3.63;3.33;;;;;;;;;;5057246;28;20226;-62
2022/07/18 16:07:55;;;;;;;3.92;3.50;;;;;;;;;;5065398;28;20324;-61
2022/07/18 16:10:43;;;;;;;3.83;3.50;;;;;;;;;;5061723;28;20214;-62
2022/07/18 16:13:31;;;;;;;3.53;3.28;;;;;;;;;;5064064;28;20259;-61
2022/07/18 16:16:18;;;;;;;3.10;2.90;;;;;;;;;;5060540;28;20660;-62
2022/07/18 16:19:05;;;;;;;3.63;3.40;;;;;;;;;;5060627;28;20278;-62
2022/07/18 16:21:53;;;;;;;3.42;3.22;;;;;;;;;;5062140;28;20242;-62
2022/07/18 16:24:40;;;;;;;3.40;3.10;;;;;;;;;;5065502;28;20686;-62
2022/07/18 16:27:29;;;;;;;3.40;3.20;;;;;;;;;;5057666;28;20235;-62
2022/07/18 16:30:16;;;;;;;3.55;3.35;;;;;;;;;;5063533;28;20651;-62
2022/07/18 16:33:03;;;;;;;3.70;3.40;;;;;;;;;;5053309;28;20215;-67
2022/07/18 16:35:50;;;;;;;3.70;3.40;;;;;;;;;;5054733;28;20665;-62
2022/07/18 16:38:37;;;;;;;3.33;3.13;;;;;;;;;;5063190;28;20205;-62
2022/07/18 16:41:24;;;;;;;3.50;3.30;;;;;;;;;;5055207;28;20207;-61
2022/07/18 16:44:13;;;;;;;3.17;2.97;;;;;;;;;;5058867;28;20207;-61
2022/07/18 16:47:01;;;;;;;3.30;3.10;;;;;;;;;;5053486;28;20293;-61
2022/07/18 16:49:48;;;;;;;3.53;3.33;;;;;;;;;;5056160;28;20756;-62
2022/07/18 16:52:37;;;;;;;3.58;3.28;;;;;;;;;;5058467;28;20256;-61